sensor_id;sensor_type;location;lat;lon;timestamp;pressure;altitude;pressure_sealevel;temperature;humidity
41636;BME280;27623;51.966;4.602;2023-05-12T00:02:10;64923.47;;;15.22;100.00
41636;BME280;27623;51.966;4.602;2023-05-12T00:04:35;64888.28;;;15.18;100.00
41636;BME280;27623;51.966;4.602;2023-05-12T00:07:01;64894.34;;;15.16;100.00
41636;BME280;27623;51.966;4.602;2023-05-12T00:09:28;64906.97;;;15.21;100.00
41636;BME280;27623;51.966;4.602;2023-05-12T00:11:55;64876.22;;;15.06;100.00
41636;BME280;27623;51.966;4.602;2023-05-12T00:14:25;64914.50;;;15.18;100.00
41636;BME280;27623;51.966;4.602;2023-05-12T00:16:51;64874.22;;;15.00;100.00
41636;BME280;27623;51.966;4.602;2023-05-12T00:19:17;64910.88;;;15.03;100.00
41636;BME280;27623;51.966;4.602;2023-05-12T00:21:43;64835.25;;;14.92;100.00
41636;BME280;27623;51.966;4.602;2023-05-12T00:24:08;64863.47;;;14.92;100.00
41636;BME280;27623;51.966;4.602;2023-05-12T00:26:34;64861.66;;;14.81;100.00
41636;BME280;27623;51.966;4.602;2023-05-12T00:28:59;64844.75;;;14.96;100.00
41636;BME280;27623;51.966;4.602;2023-05-12T00:31:24;64874.81;;;14.93;100.00
41636;BME280;27623;51.966;4.602;2023-05-12T00:33:52;64869.88;;;14.89;100.00
41636;BME280;27623;51.966;4.602;2023-05-12T00:36:17;64828.50;;;14.84;100.00
41636;BME280;27623;51.966;4.602;2023-05-12T00:38:43;64879.59;;;14.88;100.00
41636;BME280;27623;51.966;4.602;2023-05-12T00:41:08;64879.59;;;14.88;100.00
41636;BME280;27623;51.966;4.602;2023-05-12T00:43:33;64855.44;;;14.80;100.00
41636;BME280;27623;51.966;4.602;2023-05-12T00:46:00;64870.47;;;14.82;100.00
41636;BME280;27623;51.966;4.602;2023-05-12T00:48:26;64853.63;;;14.76;100.00
41636;BME280;27623;51.966;4.602;2023-05-12T00:50:55;64840.41;;;14.78;100.00
41636;BME280;27623;51.966;4.602;2023-05-12T00:53:20;64842.09;;;14.72;100.00
41636;BME280;27623;51.966;4.602;2023-05-12T00:55:46;64852.56;;;14.68;100.00
41636;BME280;27623;51.966;4.602;2023-05-12T00:58:13;64819.25;;;14.61;100.00
41636;BME280;27623;51.966;4.602;2023-05-12T01:00:39;64834.41;;;14.72;100.00
41636;BME280;27623;51.966;4.602;2023-05-12T01:03:04;64863.19;;;14.73;100.00
41636;BME280;27623;51.966;4.602;2023-05-12T01:06:09;64802.59;;;14.57;100.00
41636;BME280;27623;51.966;4.602;2023-05-12T01:08:26;64829.66;;;14.70;100.00
41636;BME280;27623;51.966;4.602;2023-05-12T01:10:51;64840.13;;;14.66;100.00
41636;BME280;27623;51.966;4.602;2023-05-12T01:13:16;64807.34;;;14.59;100.00
41636;BME280;27623;51.966;4.602;2023-05-12T01:15:46;64828.22;;;14.57;100.00
41636;BME280;27623;51.966;4.602;2023-05-12T01:18:14;64833.50;;;14.67;100.00
41636;BME280;27623;51.966;4.602;2023-05-12T01:20:41;64822.19;;;14.59;100.00
41636;BME280;27623;51.966;4.602;2023-05-12T01:23:06;64817.81;;;14.55;100.00
41636;BME280;27623;51.966;4.602;2023-05-12T01:25:33;64815.22;;;14.62;100.00
41636;BME280;27623;51.966;4.602;2023-05-12T01:27:58;64830.28;;;14.50;100.00
41636;BME280;27623;51.966;4.602;2023-05-12T01:30:30;64798.63;;;14.37;100.00
41636;BME280;27623;51.966;4.602;2023-05-12T01:32:56;64799.91;;;14.40;100.00
41636;BME280;27623;51.966;4.602;2023-05-12T01:35:24;64855.38;;;14.49;100.00
41636;BME280;27623;51.966;4.602;2023-05-12T01:37:52;64800.09;;;14.36;100.00
41636;BME280;27623;51.966;4.602;2023-05-12T01:40:17;64822.78;;;14.38;100.00
41636;BME280;27623;51.966;4.602;2023-05-12T01:42:42;64812.91;;;14.36;100.00
41636;BME280;27623;51.966;4.602;2023-05-12T01:45:08;64796.66;;;14.30;100.00
41636;BME280;27623;51.966;4.602;2023-05-12T01:47:33;64798.84;;;14.25;100.00
41636;BME280;27623;51.966;4.602;2023-05-12T01:50:01;64813.50;;;14.29;100.00
41636;BME280;27623;51.966;4.602;2023-05-12T01:52:27;64780.72;;;14.30;100.00
41636;BME280;27623;51.966;4.602;2023-05-12T01:54:53;64806.53;;;14.25;100.00
41636;BME280;27623;51.966;4.602;2023-05-12T01:57:18;64782.72;;;14.29;100.00
41636;BME280;27623;51.966;4.602;2023-05-12T01:59:43;64798.13;;;14.29;100.00
41636;BME280;27623;51.966;4.602;2023-05-12T02:02:09;64749.59;;;14.25;100.00
41636;BME280;27623;51.966;4.602;2023-05-12T02:04:38;64803.44;;;14.25;100.00
41636;BME280;27623;51.966;4.602;2023-05-12T02:07:03;64806.13;;;14.34;100.00
41636;BME280;27623;51.966;4.602;2023-05-12T02:09:28;64803.06;;;14.27;100.00
41636;BME280;27623;51.966;4.602;2023-05-12T02:11:54;64779.44;;;14.26;100.00
41636;BME280;27623;51.966;4.602;2023-05-12T02:14:19;64784.75;;;14.29;100.00
41636;BME280;27623;51.966;4.602;2023-05-12T02:16:45;64780.38;;;14.25;100.00
41636;BME280;27623;51.966;4.602;2023-05-12T02:19:13;64784.59;;;14.19;100.00
41636;BME280;27623;51.966;4.602;2023-05-12T02:21:39;64755.50;;;14.14;100.00
41636;BME280;27623;51.966;4.602;2023-05-12T02:24:04;64784.59;;;14.19;100.00
41636;BME280;27623;51.966;4.602;2023-05-12T02:26:30;64789.34;;;14.21;100.00
41636;BME280;27623;51.966;4.602;2023-05-12T02:28:55;64766.06;;;14.26;100.00
41636;BME280;27623;51.966;4.602;2023-05-12T02:31:21;64782.63;;;14.13;100.00
41636;BME280;27623;51.966;4.602;2023-05-12T02:33:46;64775.66;;;14.08;100.00
41636;BME280;27623;51.966;4.602;2023-05-12T02:36:12;64787.00;;;14.09;100.00
41636;BME280;27623;51.966;4.602;2023-05-12T02:38:37;64749.16;;;13.96;100.00
41636;BME280;27623;51.966;4.602;2023-05-12T02:41:04;64768.91;;;14.00;100.00
41636;BME280;27623;51.966;4.602;2023-05-12T02:43:30;64757.63;;;13.92;100.00
41636;BME280;27623;51.966;4.602;2023-05-12T02:45:55;64756.28;;;14.02;100.00
41636;BME280;27623;51.966;4.602;2023-05-12T02:48:20;64731.94;;;13.99;100.00
41636;BME280;27623;51.966;4.602;2023-05-12T02:50:46;64748.59;;;14.02;100.00
41636;BME280;27623;51.966;4.602;2023-05-12T02:53:13;64757.38;;;14.03;100.00
41636;BME280;27623;51.966;4.602;2023-05-12T02:55:42;64752.44;;;13.99;100.00
41636;BME280;27623;51.966;4.602;2023-05-12T02:58:07;64743.28;;;14.00;100.00
41636;BME280;27623;51.966;4.602;2023-05-12T03:00:32;64766.34;;;14.07;100.00
41636;BME280;27623;51.966;4.602;2023-05-12T03:02:58;64739.25;;;14.01;100.00
41636;BME280;27623;51.966;4.602;2023-05-12T03:05:23;64769.28;;;14.05;100.00
41636;BME280;27623;51.966;4.602;2023-05-12T03:07:49;64789.03;;;14.02;100.00
41636;BME280;27623;51.966;4.602;2023-05-12T03:10:16;64759.75;;;14.01;100.00
41636;BME280;27623;51.966;4.602;2023-05-12T03:12:41;64768.19;;;14.04;100.00
41636;BME280;27623;51.966;4.602;2023-05-12T03:15:07;64742.38;;;14.01;100.00
41636;BME280;27623;51.966;4.602;2023-05-12T03:17:35;64744.03;;;13.96;100.00
41636;BME280;27623;51.966;4.602;2023-05-12T03:20:02;64751.22;;;13.88;100.00
41636;BME280;27623;51.966;4.602;2023-05-12T03:22:28;64761.47;;;13.81;100.00
41636;BME280;27623;51.966;4.602;2023-05-12T03:24:53;64730.53;;;13.86;100.00
41636;BME280;27623;51.966;4.602;2023-05-12T03:27:18;64719.75;;;13.85;100.00
41636;BME280;27623;51.966;4.602;2023-05-12T03:29:44;64721.03;;;13.89;100.00
41636;BME280;27623;51.966;4.602;2023-05-12T03:32:10;64755.63;;;13.78;100.00
41636;BME280;27623;51.966;4.602;2023-05-12T03:34:35;64743.91;;;13.79;100.00
41636;BME280;27623;51.966;4.602;2023-05-12T03:37:00;64728.38;;;13.76;100.00
41636;BME280;27623;51.966;4.602;2023-05-12T03:39:26;64713.34;;;13.82;100.00
41636;BME280;27623;51.966;4.602;2023-05-12T03:41:51;64745.00;;;13.80;100.00
41636;BME280;27623;51.966;4.602;2023-05-12T03:44:19;64711.75;;;13.73;100.00
41636;BME280;27623;51.966;4.602;2023-05-12T03:46:47;64706.28;;;13.68;100.00
41636;BME280;27623;51.966;4.602;2023-05-12T03:49:12;64726.94;;;13.70;100.00
41636;BME280;27623;51.966;4.602;2023-05-12T03:51:38;64718.88;;;13.72;100.00
41636;BME280;27623;51.966;4.602;2023-05-12T03:54:03;64742.09;;;13.75;100.00
41636;BME280;27623;51.966;4.602;2023-05-12T03:56:28;64700.06;;;13.67;100.00
41636;BME280;27623;51.966;4.602;2023-05-12T03:58:54;64692.03;;;13.62;100.00
41636;BME280;27623;51.966;4.602;2023-05-12T04:01:19;64738.44;;;13.74;100.00
41636;BME280;27623;51.966;4.602;2023-05-12T04:03:45;64738.44;;;13.74;100.00
41636;BME280;27623;51.966;4.602;2023-05-12T04:06:10;64721.81;;;13.70;100.00
41636;BME280;27623;51.966;4.602;2023-05-12T04:08:36;64711.59;;;13.70;100.00
41636;BME280;27623;51.966;4.602;2023-05-12T04:11:02;64716.31;;;13.72;100.00
41636;BME280;27623;51.966;4.602;2023-05-12T04:13:28;64720.38;;;13.64;100.00
41636;BME280;27623;51.966;4.602;2023-05-12T04:15:54;64697.69;;;13.62;100.00
41636;BME280;27623;51.966;4.602;2023-05-12T04:18:26;64724.59;;;13.59;100.00
41636;BME280;27623;51.966;4.602;2023-05-12T04:20:53;64688.94;;;13.54;100.00
41636;BME280;27623;51.966;4.602;2023-05-12T04:23:21;64701.38;;;13.56;100.00
41636;BME280;27623;51.966;4.602;2023-05-12T04:25:47;64717.81;;;13.64;100.00
41636;BME280;27623;51.966;4.602;2023-05-12T04:28:12;64752.03;;;13.63;100.00
41636;BME280;27623;51.966;4.602;2023-05-12T04:30:39;64726.97;;;13.63;100.00
41636;BME280;27623;51.966;4.602;2023-05-12T04:33:05;64732.09;;;13.63;100.00
41636;BME280;27623;51.966;4.602;2023-05-12T04:35:33;64741.00;;;13.74;100.00
41636;BME280;27623;51.966;4.602;2023-05-12T04:38:01;64722.56;;;13.66;100.00
41636;BME280;27623;51.966;4.602;2023-05-12T04:40:29;64698.78;;;13.70;100.00
41636;BME280;27623;51.966;4.602;2023-05-12T04:42:54;64716.91;;;13.66;100.00
41636;BME280;27623;51.966;4.602;2023-05-12T04:45:20;64735.75;;;13.64;100.00
41636;BME280;27623;51.966;4.602;2023-05-12T04:47:50;64737.19;;;13.70;100.00
41636;BME280;27623;51.966;4.602;2023-05-12T04:50:15;64730.81;;;13.60;100.00
41636;BME280;27623;51.966;4.602;2023-05-12T04:52:40;64738.66;;;13.62;100.00
41636;BME280;27623;51.966;4.602;2023-05-12T04:55:06;64714.88;;;13.66;100.00
41636;BME280;27623;51.966;4.602;2023-05-12T04:57:32;64695.13;;;13.62;100.00
41636;BME280;27623;51.966;4.602;2023-05-12T04:59:58;64722.94;;;13.57;100.00
41636;BME280;27623;51.966;4.602;2023-05-12T05:02:24;64712.88;;;13.67;100.00
41636;BME280;27623;51.966;4.602;2023-05-12T05:04:49;64731.16;;;13.65;100.00
41636;BME280;27623;51.966;4.602;2023-05-12T05:07:15;64707.56;;;13.71;100.00
41636;BME280;27623;51.966;4.602;2023-05-12T05:09:40;64737.56;;;13.68;100.00
41636;BME280;27623;51.966;4.602;2023-05-12T05:12:06;64749.41;;;13.77;100.00
41636;BME280;27623;51.966;4.602;2023-05-12T05:14:32;64762.78;;;13.77;100.00
41636;BME280;27623;51.966;4.602;2023-05-12T05:16:59;64755.84;;;13.66;100.00
41636;BME280;27623;51.966;4.602;2023-05-12T05:19:25;64753.09;;;13.71;100.00
41636;BME280;27623;51.966;4.602;2023-05-12T05:21:53;64714.31;;;13.73;100.00
41636;BME280;27623;51.966;4.602;2023-05-12T05:24:19;64710.13;;;13.71;100.00
41636;BME280;27623;51.966;4.602;2023-05-12T05:26:46;64748.69;;;13.74;100.00
41636;BME280;27623;51.966;4.602;2023-05-12T05:29:12;64730.94;;;13.76;100.00
41636;BME280;27623;51.966;4.602;2023-05-12T05:31:37;64757.44;;;13.82;100.00
41636;BME280;27623;51.966;4.602;2023-05-12T05:34:02;64732.00;;;13.85;100.00
41636;BME280;27623;51.966;4.602;2023-05-12T05:36:28;64745.75;;;13.83;100.00
41636;BME280;27623;51.966;4.602;2023-05-12T05:38:54;64764.22;;;13.76;100.00
41636;BME280;27623;51.966;4.602;2023-05-12T05:41:19;64718.88;;;13.72;100.00
41636;BME280;27623;51.966;4.602;2023-05-12T05:43:45;64708.63;;;13.72;100.00
41636;BME280;27623;51.966;4.602;2023-05-12T05:46:10;64759.28;;;13.79;100.00
41636;BME280;27623;51.966;4.602;2023-05-12T05:48:36;64736.97;;;13.82;100.00
41636;BME280;27623;51.966;4.602;2023-05-12T05:51:01;64719.78;;;13.78;100.00
41636;BME280;27623;51.966;4.602;2023-05-12T05:53:27;64738.44;;;13.81;100.00
41636;BME280;27623;51.966;4.602;2023-05-12T05:55:52;64769.16;;;13.88;100.00
41636;BME280;27623;51.966;4.602;2023-05-12T05:58:20;64765.13;;;13.89;100.00
41636;BME280;27623;51.966;4.602;2023-05-12T06:00:48;64724.50;;;13.87;100.00
41636;BME280;27623;51.966;4.602;2023-05-12T06:03:15;64762.19;;;13.91;100.00
41636;BME280;27623;51.966;4.602;2023-05-12T06:05:41;64748.25;;;13.97;100.00
41636;BME280;27623;51.966;4.602;2023-05-12T06:08:07;64763.78;;;14.00;100.00
41636;BME280;27623;51.966;4.602;2023-05-12T06:10:37;64758.09;;;14.06;100.00
41636;BME280;27623;51.966;4.602;2023-05-12T06:13:03;64770.53;;;14.08;100.00
41636;BME280;27623;51.966;4.602;2023-05-12T06:15:31;64735.59;;;14.07;100.00
41636;BME280;27623;51.966;4.602;2023-05-12T06:17:56;64767.25;;;14.05;100.00
41636;BME280;27623;51.966;4.602;2023-05-12T06:20:22;64784.44;;;14.09;100.00
41636;BME280;27623;51.966;4.602;2023-05-12T06:22:48;64767.59;;;14.10;100.00
41636;BME280;27623;51.966;4.602;2023-05-12T06:25:13;64772.22;;;14.03;100.00
41636;BME280;27623;51.966;4.602;2023-05-12T06:27:39;64764.69;;;14.05;100.00
41636;BME280;27623;51.966;4.602;2023-05-12T06:30:05;64770.72;;;14.11;100.00
41636;BME280;27623;51.966;4.602;2023-05-12T06:32:30;64755.00;;;14.06;100.00
41636;BME280;27623;51.966;4.602;2023-05-12T06:34:58;64783.16;;;14.13;100.00
41636;BME280;27623;51.966;4.602;2023-05-12T06:37:23;64799.78;;;14.24;100.00
41636;BME280;27623;51.966;4.602;2023-05-12T06:39:49;64811.66;;;14.32;100.00
41636;BME280;27623;51.966;4.602;2023-05-12T06:42:14;64838.53;;;14.36;100.00
41636;BME280;27623;51.966;4.602;2023-05-12T06:44:40;64788.34;;;14.44;100.00
41636;BME280;27623;51.966;4.602;2023-05-12T06:47:05;64846.03;;;14.48;100.00
41636;BME280;27623;51.966;4.602;2023-05-12T06:49:33;64802.28;;;14.45;100.00
41636;BME280;27623;51.966;4.602;2023-05-12T06:52:01;64822.03;;;14.49;100.00
41636;BME280;27623;51.966;4.602;2023-05-12T06:54:27;64841.47;;;14.48;100.00
41636;BME280;27623;51.966;4.602;2023-05-12T06:56:52;64852.09;;;14.46;100.00
41636;BME280;27623;51.966;4.602;2023-05-12T06:59:17;64796.59;;;14.44;100.00
41636;BME280;27623;51.966;4.602;2023-05-12T07:01:43;64839.44;;;14.49;100.00
41636;BME280;27623;51.966;4.602;2023-05-12T07:04:08;64843.84;;;14.46;100.00
41636;BME280;27623;51.966;4.602;2023-05-12T07:06:34;64829.00;;;14.46;100.00
41636;BME280;27623;51.966;4.602;2023-05-12T07:09:01;64803.38;;;14.46;100.00
41636;BME280;27623;51.966;4.602;2023-05-12T07:11:27;64813.09;;;14.46;100.00
41636;BME280;27623;51.966;4.602;2023-05-12T07:13:52;64856.84;;;14.48;100.00
41636;BME280;27623;51.966;4.602;2023-05-12T07:16:18;64796.97;;;14.42;100.00
41636;BME280;27623;51.966;4.602;2023-05-12T07:18:46;64820.59;;;14.43;100.00
41636;BME280;27623;51.966;4.602;2023-05-12T07:21:12;64822.41;;;14.47;100.00
41636;BME280;27623;51.966;4.602;2023-05-12T07:23:38;64846.94;;;14.53;100.00
41636;BME280;27623;51.966;4.602;2023-05-12T07:26:04;64832.44;;;14.59;100.00
41636;BME280;27623;51.966;4.602;2023-05-12T07:28:33;64856.06;;;14.66;100.00
41636;BME280;27623;51.966;4.602;2023-05-12T07:31:06;64853.97;;;14.81;100.00
41636;BME280;27623;51.966;4.602;2023-05-12T07:33:37;64893.91;;;14.87;100.00
41636;BME280;27623;51.966;4.602;2023-05-12T07:36:02;64875.38;;;14.94;100.00
41636;BME280;27623;51.966;4.602;2023-05-12T07:38:32;64914.38;;;15.01;100.00
41636;BME280;27623;51.966;4.602;2023-05-12T07:41:00;64921.88;;;15.06;100.00
41636;BME280;27623;51.966;4.602;2023-05-12T07:43:25;64942.94;;;15.13;100.00
41636;BME280;27623;51.966;4.602;2023-05-12T07:45:51;64902.41;;;15.14;100.00
41636;BME280;27623;51.966;4.602;2023-05-12T07:48:16;64920.16;;;15.19;100.00
41636;BME280;27623;51.966;4.602;2023-05-12T07:50:41;64956.84;;;15.22;100.00
41636;BME280;27623;51.966;4.602;2023-05-12T07:53:07;64905.72;;;15.17;100.00
41636;BME280;27623;51.966;4.602;2023-05-12T07:55:32;64932.47;;;15.18;100.00
41636;BME280;27623;51.966;4.602;2023-05-12T07:57:58;64910.06;;;15.21;100.00
41636;BME280;27623;51.966;4.602;2023-05-12T08:00:24;64950.41;;;15.25;100.00
41636;BME280;27623;51.966;4.602;2023-05-12T08:02:49;64950.22;;;15.30;100.00
41636;BME280;27623;51.966;4.602;2023-05-12T08:05:14;64922.16;;;15.32;100.00
41636;BME280;27623;51.966;4.602;2023-05-12T08:07:40;64926.53;;;15.36;100.00
41636;BME280;27623;51.966;4.602;2023-05-12T08:10:08;64947.97;;;15.42;100.00
41636;BME280;27623;51.966;4.602;2023-05-12T08:12:34;64948.13;;;15.44;100.00
41636;BME280;27623;51.966;4.602;2023-05-12T08:14:59;64933.44;;;15.47;100.00
41636;BME280;27623;51.966;4.602;2023-05-12T08:17:25;64957.28;;;15.51;100.00
41636;BME280;27623;51.966;4.602;2023-05-12T08:19:50;64966.13;;;15.44;100.00
41636;BME280;27623;51.966;4.602;2023-05-12T08:22:18;64935.25;;;15.52;100.00
41636;BME280;27623;51.966;4.602;2023-05-12T08:24:46;64963.91;;;15.57;100.00
41636;BME280;27623;51.966;4.602;2023-05-12T08:27:11;64987.91;;;15.62;100.00
41636;BME280;27623;51.966;4.602;2023-05-12T08:29:36;64979.44;;;15.66;100.00
41636;BME280;27623;51.966;4.602;2023-05-12T08:32:02;64986.94;;;15.71;100.00
41636;BME280;27623;51.966;4.602;2023-05-12T08:34:28;64999.03;;;15.75;100.00
41636;BME280;27623;51.966;4.602;2023-05-12T08:36:53;65003.94;;;15.87;100.00
41636;BME280;27623;51.966;4.602;2023-05-12T08:39:23;64998.59;;;15.91;100.00
41636;BME280;27623;51.966;4.602;2023-05-12T08:42:02;65022.41;;;16.01;100.00
41636;BME280;27623;51.966;4.602;2023-05-12T08:44:36;65045.88;;;16.13;100.00
41636;BME280;27623;51.966;4.602;2023-05-12T08:47:03;65058.72;;;16.13;100.00
41636;BME280;27623;51.966;4.602;2023-05-12T08:49:34;65086.41;;;16.27;100.00
41636;BME280;27623;51.966;4.602;2023-05-12T08:52:01;65072.78;;;16.38;100.00
41636;BME280;27623;51.966;4.602;2023-05-12T08:54:27;65022.66;;;16.28;100.00
41636;BME280;27623;51.966;4.602;2023-05-12T08:56:53;65057.34;;;16.38;100.00
41636;BME280;27623;51.966;4.602;2023-05-12T08:59:22;65071.06;;;16.44;100.00
41636;BME280;27623;51.966;4.602;2023-05-12T09:01:48;65084.44;;;16.59;100.00
41636;BME280;27623;51.966;4.602;2023-05-12T09:04:13;65079.03;;;16.77;100.00
41636;BME280;27623;51.966;4.602;2023-05-12T09:06:42;65108.72;;;16.91;100.00
41636;BME280;27623;51.966;4.602;2023-05-12T09:09:08;65132.44;;;16.91;100.00
41636;BME280;27623;51.966;4.602;2023-05-12T09:11:34;65138.31;;;16.94;100.00
41636;BME280;27623;51.966;4.602;2023-05-12T09:14:04;65114.44;;;16.91;100.00
41636;BME280;27623;51.966;4.602;2023-05-12T09:16:35;65134.28;;;16.95;100.00
41636;BME280;27623;51.966;4.602;2023-05-12T09:19:02;65146.72;;;17.04;100.00
41636;BME280;27623;51.966;4.602;2023-05-12T09:21:28;65178.13;;;17.19;100.00
41636;BME280;27623;51.966;4.602;2023-05-12T09:26:20;65258.75;;;17.53;100.00
41636;BME280;27623;51.966;4.602;2023-05-12T09:28:47;65250.19;;;17.71;100.00
41636;BME280;27623;51.966;4.602;2023-05-12T09:31:17;65263.03;;;17.85;100.00
41636;BME280;27623;51.966;4.602;2023-05-12T09:33:43;65242.72;;;17.91;100.00
41636;BME280;27623;51.966;4.602;2023-05-12T09:36:09;65253.56;;;17.98;100.00
41636;BME280;27623;51.966;4.602;2023-05-12T09:38:38;65263.16;;;17.95;100.00
41636;BME280;27623;51.966;4.602;2023-05-12T09:41:04;65237.69;;;18.00;100.00
41636;BME280;27623;51.966;4.602;2023-05-12T09:43:29;65314.66;;;18.09;100.00
41636;BME280;27623;51.966;4.602;2023-05-12T09:45:57;65296.56;;;18.16;100.00
41636;BME280;27623;51.966;4.602;2023-05-12T09:48:28;65315.13;;;18.24;100.00
41636;BME280;27623;51.966;4.602;2023-05-12T09:50:56;65333.16;;;18.31;100.00
41636;BME280;27623;51.966;4.602;2023-05-12T09:53:22;65354.94;;;18.25;100.00
41636;BME280;27623;51.966;4.602;2023-05-12T09:55:48;65307.34;;;18.31;100.00
41636;BME280;27623;51.966;4.602;2023-05-12T09:58:15;65300.13;;;18.39;100.00
41636;BME280;27623;51.966;4.602;2023-05-12T10:00:42;65326.38;;;18.53;100.00
41636;BME280;27623;51.966;4.602;2023-05-12T10:03:15;65378.47;;;18.75;100.00
41636;BME280;27623;51.966;4.602;2023-05-12T10:05:49;65404.38;;;18.92;100.00
41636;BME280;27623;51.966;4.602;2023-05-12T10:08:23;65409.03;;;19.15;100.00
41636;BME280;27623;51.966;4.602;2023-05-12T10:10:52;65460.66;;;19.30;100.00
41636;BME280;27623;51.966;4.602;2023-05-12T10:13:21;65435.09;;;19.42;100.00
41636;BME280;27623;51.966;4.602;2023-05-12T10:15:47;65468.63;;;19.56;100.00
41636;BME280;27623;51.966;4.602;2023-05-12T10:18:15;65502.72;;;19.71;99.72
41636;BME280;27623;51.966;4.602;2023-05-12T10:20:43;65513.72;;;19.81;98.67
41636;BME280;27623;51.966;4.602;2023-05-12T10:23:09;65530.75;;;20.04;99.69
41636;BME280;27623;51.966;4.602;2023-05-12T10:25:43;65517.00;;;20.15;96.82
41636;BME280;27623;51.966;4.602;2023-05-12T10:28:09;65575.72;;;20.26;88.82
41636;BME280;27623;51.966;4.602;2023-05-12T10:30:38;65558.56;;;20.17;83.17
41636;BME280;27623;51.966;4.602;2023-05-12T10:33:04;65571.84;;;20.22;81.09
41636;BME280;27623;51.966;4.602;2023-05-12T10:35:38;65559.41;;;20.30;79.00
41636;BME280;27623;51.966;4.602;2023-05-12T10:38:11;65572.75;;;20.28;79.27
41636;BME280;27623;51.966;4.602;2023-05-12T10:41:01;65586.63;;;20.27;79.13
41636;BME280;27623;51.966;4.602;2023-05-12T10:43:42;65561.66;;;20.25;79.80
41636;BME280;27623;51.966;4.602;2023-05-12T10:51:29;65549.00;;;19.82;78.19
41636;BME280;27623;51.966;4.602;2023-05-12T10:53:59;65479.25;;;19.68;78.23
41636;BME280;27623;51.966;4.602;2023-05-12T10:56:44;65476.59;;;19.75;80.76
41636;BME280;27623;51.966;4.602;2023-05-12T10:59:11;65535.94;;;20.04;82.17
41636;BME280;27623;51.966;4.602;2023-05-12T11:01:38;65577.47;;;20.44;82.64
41636;BME280;27623;51.966;4.602;2023-05-12T11:04:14;65633.69;;;20.72;81.17
41636;BME280;27623;51.966;4.602;2023-05-12T11:06:40;65618.81;;;20.82;80.14
41636;BME280;27623;51.966;4.602;2023-05-12T11:09:06;65703.31;;;20.98;79.91
41636;BME280;27623;51.966;4.602;2023-05-12T11:11:32;65676.34;;;21.14;75.63
41636;BME280;27623;51.966;4.602;2023-05-12T11:13:58;65710.84;;;21.34;77.04
41636;BME280;27623;51.966;4.602;2023-05-12T11:16:24;65724.81;;;21.49;76.96
41636;BME280;27623;51.966;4.602;2023-05-12T11:19:05;65707.16;;;21.56;71.98
41636;BME280;27623;51.966;4.602;2023-05-12T11:21:31;65798.44;;;21.95;72.81
41636;BME280;27623;51.966;4.602;2023-05-12T11:23:57;65816.19;;;22.04;66.84
41636;BME280;27623;51.966;4.602;2023-05-12T11:26:23;65817.56;;;22.17;69.81
41636;BME280;27623;51.966;4.602;2023-05-12T11:31:18;65904.97;;;22.67;64.47
41636;BME280;27623;51.966;4.602;2023-05-12T11:33:44;65895.22;;;22.77;64.05
41636;BME280;27623;51.966;4.602;2023-05-12T11:36:10;65921.06;;;22.74;65.95
41636;BME280;27623;51.966;4.602;2023-05-12T11:38:35;65922.91;;;22.78;65.51
41636;BME280;27623;51.966;4.602;2023-05-12T11:41:03;65877.38;;;22.58;64.18
41636;BME280;27623;51.966;4.602;2023-05-12T11:43:28;65884.22;;;22.59;65.04
41636;BME280;27623;51.966;4.602;2023-05-12T11:45:54;65876.09;;;22.54;63.09
41636;BME280;27623;51.966;4.602;2023-05-12T11:48:31;65874.38;;;22.60;61.47
41636;BME280;27623;51.966;4.602;2023-05-12T11:50:57;65882.41;;;22.55;56.91
41636;BME280;27623;51.966;4.602;2023-05-12T11:53:22;65882.84;;;22.70;56.98
41636;BME280;27623;51.966;4.602;2023-05-12T11:55:53;65879.81;;;22.79;57.81
41636;BME280;27623;51.966;4.602;2023-05-12T11:58:21;65952.72;;;22.89;59.64
41636;BME280;27623;51.966;4.602;2023-05-12T12:00:47;65901.91;;;22.76;55.95
41636;BME280;27623;51.966;4.602;2023-05-12T12:03:18;65904.97;;;22.90;54.36
41636;BME280;27623;51.966;4.602;2023-05-12T12:05:55;65931.56;;;23.08;52.25
41636;BME280;27623;51.966;4.602;2023-05-12T12:08:21;65982.03;;;23.40;53.98
41636;BME280;27623;51.966;4.602;2023-05-12T12:10:47;65998.66;;;23.55;52.63
41636;BME280;27623;51.966;4.602;2023-05-12T12:13:22;66028.63;;;23.75;47.20
41636;BME280;27623;51.966;4.602;2023-05-12T12:15:53;66072.69;;;23.96;48.58
41636;BME280;27623;51.966;4.602;2023-05-12T12:18:18;66112.88;;;23.97;46.63
41636;BME280;27623;51.966;4.602;2023-05-12T12:20:44;66077.56;;;24.15;45.15
41636;BME280;27623;51.966;4.602;2023-05-12T12:23:11;66025.00;;;23.84;45.31
41636;BME280;27623;51.966;4.602;2023-05-12T12:25:38;66015.97;;;23.73;44.08
41636;BME280;27623;51.966;4.602;2023-05-12T12:28:04;65969.81;;;23.36;44.89
41636;BME280;27623;51.966;4.602;2023-05-12T12:30:29;65970.41;;;23.53;44.40
41636;BME280;27623;51.966;4.602;2023-05-12T12:32:55;66006.91;;;23.46;45.61
41636;BME280;27623;51.966;4.602;2023-05-12T12:35:21;66029.00;;;23.73;46.07
41636;BME280;27623;51.966;4.602;2023-05-12T12:37:48;66034.00;;;23.78;43.99
41636;BME280;27623;51.966;4.602;2023-05-12T12:40:19;65958.34;;;23.51;44.01
41636;BME280;27623;51.966;4.602;2023-05-12T12:42:45;66037.81;;;23.64;44.00
41636;BME280;27623;51.966;4.602;2023-05-12T12:45:11;65992.16;;;23.51;44.04
41636;BME280;27623;51.966;4.602;2023-05-12T12:47:37;65997.16;;;23.56;45.77
41636;BME280;27623;51.966;4.602;2023-05-12T12:50:04;66046.19;;;23.89;45.36
41636;BME280;27623;51.966;4.602;2023-05-12T12:52:30;66056.03;;;23.88;43.96
41636;BME280;27623;51.966;4.602;2023-05-12T12:54:55;66072.53;;;23.94;45.71
41636;BME280;27623;51.966;4.602;2023-05-12T12:57:23;66069.00;;;23.95;46.31
41636;BME280;27623;51.966;4.602;2023-05-12T12:59:50;66021.84;;;23.83;45.26
41636;BME280;27623;51.966;4.602;2023-05-12T13:02:17;66001.03;;;23.59;45.97